createdAt,value
2016-10-14T00:00:14.827Z,59.5
2016-10-14T00:01:15.127Z,59.5
2016-10-14T00:02:15.110Z,59.41
2016-10-14T00:03:15.101Z,59.41
2016-10-14T00:04:15.080Z,59.41
2016-10-14T00:05:15.063Z,59.5
2016-10-14T00:06:15.039Z,59.31
2016-10-14T00:07:15.024Z,59.6
2016-10-14T00:08:15.011Z,59.41
2016-10-14T00:09:14.992Z,59.66
2016-10-14T00:10:14.984Z,59.47
2016-10-14T00:11:14.967Z,59.31
2016-10-14T00:12:14.634Z,59.6
2016-10-14T00:13:14.925Z,60.14
2016-10-14T00:14:14.912Z,59.99
2016-10-14T00:15:14.577Z,60.17
2016-10-14T00:16:14.877Z,60.37
2016-10-14T00:17:14.862Z,60.66
2016-10-14T00:18:14.845Z,60.56
2016-10-14T00:19:14.865Z,60.08
2016-10-14T00:20:14.811Z,59.99
2016-10-14T00:21:14.796Z,59.69
2016-10-14T00:22:14.779Z,59.79
2016-10-14T00:23:14.763Z,59.89
2016-10-14T00:24:14.434Z,60.17
2016-10-14T00:25:14.725Z,60.08
2016-10-14T00:26:14.715Z,60.14
2016-10-14T00:27:14.690Z,59.89
2016-10-14T00:28:14.677Z,60.17
2016-10-14T00:29:14.346Z,59.79
2016-10-14T00:30:14.645Z,59.89
2016-10-14T00:31:14.627Z,59.99
2016-10-14T00:32:14.614Z,59.99
2016-10-14T00:33:14.591Z,59.76
2016-10-14T00:34:14.576Z,60.08
2016-10-14T00:35:14.559Z,59.89
2016-10-14T00:36:14.541Z,59.99
2016-10-14T00:37:14.212Z,60.17
2016-10-14T00:38:14.519Z,59.99
2016-10-14T00:39:14.491Z,60.34
2016-10-14T00:40:14.474Z,59.89
2016-10-14T00:41:14.463Z,59.99
2016-10-14T00:42:14.444Z,60.17
2016-10-14T00:43:14.424Z,59.99
2016-10-14T00:44:14.425Z,59.89
2016-10-14T00:45:14.079Z,59.99
2016-10-14T00:46:14.378Z,60.08
2016-10-14T00:47:14.353Z,60.08
2016-10-14T00:48:14.344Z,59.89
2016-10-14T00:49:14.328Z,59.76
2016-10-14T00:50:14.309Z,59.89
2016-10-14T00:51:14.292Z,59.99
2016-10-14T00:52:14.273Z,59.66
2016-10-14T00:53:14.260Z,59.89
2016-10-14T00:54:14.243Z,59.95
2016-10-14T00:55:14.238Z,59.99
2016-10-14T00:56:14.206Z,60.34
2016-10-14T00:57:14.190Z,59.79
2016-10-14T00:58:14.175Z,59.76
2016-10-14T00:59:14.156Z,59.99
2016-10-14T01:00:14.141Z,59.79
2016-10-14T01:01:14.125Z,59.99
2016-10-14T01:02:13.792Z,60.17
2016-10-14T01:03:14.093Z,59.86
2016-10-14T01:04:13.760Z,59.79
2016-10-14T01:05:14.053Z,59.66
2016-10-14T01:06:14.049Z,60.24
2016-10-14T01:07:14.022Z,60.24
2016-10-14T01:08:14.003Z,59.86
2016-10-14T01:09:13.988Z,59.86
2016-10-14T01:10:13.976Z,59.76
2016-10-14T01:11:13.953Z,59.76
2016-10-14T01:12:13.940Z,59.69
2016-10-14T01:13:13.919Z,59.76
2016-10-14T01:14:13.907Z,59.69
2016-10-14T01:15:13.894Z,60.05
2016-10-14T01:16:13.875Z,60.05
2016-10-14T01:17:13.857Z,60.24
2016-10-14T01:18:13.524Z,60.34
2016-10-14T01:19:13.507Z,59.95
2016-10-14T01:20:13.806Z,60.24
2016-10-14T01:21:13.789Z,60.34
2016-10-14T01:22:13.772Z,60.34
2016-10-14T01:23:13.759Z,59.95
2016-10-14T01:24:13.739Z,59.76
2016-10-14T01:25:13.724Z,59.95
2016-10-14T01:26:13.707Z,60.24
2016-10-14T01:27:13.684Z,60.24
2016-10-14T01:28:13.356Z,59.86
2016-10-14T01:29:13.661Z,60.34
2016-10-14T01:30:13.634Z,59.95
2016-10-14T01:31:13.621Z,59.76
2016-10-14T01:32:13.598Z,60.14
2016-10-14T01:33:13.583Z,59.86
2016-10-14T01:34:13.573Z,60.24
2016-10-14T01:35:13.554Z,60.24
2016-10-14T01:36:13.531Z,59.86
2016-10-14T01:37:13.516Z,60.05
2016-10-14T01:38:13.506Z,60.24
2016-10-14T01:39:13.487Z,60.14
2016-10-14T01:40:13.470Z,60.24
2016-10-14T01:41:13.455Z,59.86
2016-10-14T01:42:13.120Z,59.76
2016-10-14T01:43:13.424Z,59.95
2016-10-14T01:44:13.397Z,59.95
2016-10-14T01:45:13.070Z,59.86
2016-10-14T01:46:13.363Z,59.95
2016-10-14T01:47:13.351Z,59.95
2016-10-14T01:48:13.340Z,60.14
2016-10-14T01:49:13.319Z,59.76
2016-10-14T01:50:13.301Z,59.76
2016-10-14T01:51:13.282Z,60.14
2016-10-14T01:52:13.269Z,59.86
2016-10-14T01:53:13.248Z,59.86
2016-10-14T01:54:12.919Z,59.66
2016-10-14T01:55:12.903Z,60.24
2016-10-14T01:56:13.206Z,60.63
2016-10-14T01:57:13.179Z,60.63
2016-10-14T01:58:13.165Z,59.76
2016-10-14T01:59:13.151Z,60.63
2016-10-14T02:00:12.816Z,60.82
2016-10-14T02:01:13.111Z,60.34
2016-10-14T02:02:13.098Z,60.53
2016-10-14T02:03:13.078Z,60.53
2016-10-14T02:04:12.749Z,60.34
2016-10-14T02:05:13.044Z,60.63
2016-10-14T02:06:13.031Z,60.63
2016-10-14T02:07:13.018Z,60.43
2016-10-14T02:08:13.002Z,60.43
2016-10-14T02:09:12.981Z,60.14
2016-10-14T02:10:12.970Z,60.53
2016-10-14T02:11:12.948Z,60.72
2016-10-14T02:12:12.927Z,60.34
2016-10-14T02:13:12.914Z,60.34
2016-10-14T02:14:12.891Z,60.53
2016-10-14T02:15:12.882Z,60.34
2016-10-14T02:16:12.859Z,60.34
2016-10-14T02:17:12.531Z,60.53
2016-10-14T02:18:12.832Z,60.63
2016-10-14T02:19:12.815Z,60.63
2016-10-14T02:20:12.795Z,60.72
2016-10-14T02:21:12.462Z,60.43
2016-10-14T02:22:12.769Z,60.43
2016-10-14T02:23:12.746Z,60.53
2016-10-14T02:24:12.723Z,60.72
2016-10-14T02:25:12.711Z,61.01
2016-10-14T02:26:12.700Z,60.72
2016-10-14T02:27:12.691Z,60.53
2016-10-14T02:28:12.659Z,60.53
2016-10-14T02:29:12.645Z,60.34
2016-10-14T02:30:12.628Z,60.53
2016-10-14T02:31:12.608Z,60.63
2016-10-14T02:32:12.591Z,60.34
2016-10-14T02:33:12.576Z,60.14
2016-10-14T02:34:12.558Z,60.43
2016-10-14T02:35:12.547Z,60.43
2016-10-14T02:36:12.205Z,60.72
2016-10-14T02:37:12.507Z,60.53
2016-10-14T02:38:12.504Z,60.14
2016-10-14T02:39:12.472Z,60.34
2016-10-14T02:40:12.459Z,60.34
2016-10-14T02:41:12.122Z,60.34
2016-10-14T02:42:12.419Z,60.72
2016-10-14T02:43:12.407Z,60.53
2016-10-14T02:44:12.386Z,60.34
2016-10-14T02:45:12.369Z,60.72
2016-10-14T02:46:12.355Z,60.63
2016-10-14T02:47:12.340Z,60.43
2016-10-14T02:48:12.321Z,60.14
2016-10-14T02:49:12.308Z,60.24
2016-10-14T02:50:12.288Z,60.24
2016-10-14T02:51:11.955Z,60.43
2016-10-14T02:52:12.252Z,60.43
2016-10-14T02:53:12.238Z,60.24
2016-10-14T02:54:12.219Z,60.43
2016-10-14T02:55:12.199Z,60.43
2016-10-14T02:56:12.188Z,60.43
2016-10-14T02:57:12.177Z,60.24
2016-10-14T02:58:12.151Z,60.43
2016-10-14T02:59:11.820Z,60.43
2016-10-14T03:00:11.801Z,60.43
2016-10-14T03:01:12.104Z,61.11
2016-10-14T03:02:12.087Z,61.01
2016-10-14T03:03:12.070Z,60.34
2016-10-14T03:04:12.052Z,60.63
2016-10-14T03:05:12.043Z,60.43
2016-10-14T03:06:12.018Z,60.14
2016-10-14T03:07:12.001Z,60.43
2016-10-14T03:08:11.980Z,60.43
2016-10-14T03:09:11.963Z,60.53
2016-10-14T03:10:11.947Z,60.14
2016-10-14T03:11:11.932Z,60.43
2016-10-14T03:12:11.917Z,60.63
2016-10-14T03:13:11.902Z,60.34
2016-10-14T03:14:11.878Z,60.43
2016-10-14T03:15:11.867Z,60.72
2016-10-14T03:16:11.848Z,60.53
2016-10-14T03:17:11.835Z,60.43
2016-10-14T03:18:11.815Z,60.53
2016-10-14T03:19:11.801Z,60.14
2016-10-14T03:20:11.789Z,60.43
2016-10-14T03:21:11.764Z,60.34
2016-10-14T03:22:11.746Z,60.43
2016-10-14T03:23:11.731Z,60.34
2016-10-14T03:24:11.721Z,60.43
2016-10-14T03:25:11.383Z,60.53
2016-10-14T03:26:11.688Z,60.63
2016-10-14T03:27:11.664Z,60.53
2016-10-14T03:28:11.649Z,60.53
2016-10-14T03:29:11.630Z,60.24
2016-10-14T03:30:11.623Z,60.53
2016-10-14T03:31:11.596Z,60.63
2016-10-14T03:32:11.580Z,59.95
2016-10-14T03:33:11.563Z,60.63
2016-10-14T03:34:11.554Z,60.72
2016-10-14T03:35:11.524Z,60.72
2016-10-14T03:36:11.508Z,60.24
2016-10-14T03:37:11.503Z,60.63
2016-10-14T03:38:11.480Z,60.63
2016-10-14T03:39:11.460Z,60.14
2016-10-14T03:40:11.444Z,60.82
2016-10-14T03:41:11.427Z,60.82
2016-10-14T03:42:11.414Z,60.53
2016-10-14T03:43:11.394Z,60.72
2016-10-14T03:44:11.379Z,60.63
2016-10-14T03:45:11.356Z,59.86
2016-10-14T03:46:11.343Z,60.72
2016-10-14T03:47:11.010Z,60.14
2016-10-14T03:48:10.997Z,60.05
2016-10-14T03:49:11.295Z,60.14
2016-10-14T03:50:11.272Z,59.66
2016-10-14T03:51:11.258Z,59.95
2016-10-14T03:52:11.242Z,60.63
2016-10-14T03:53:11.474Z,60.4
2016-10-14T03:54:11.209Z,60.53
2016-10-14T03:55:11.192Z,60.34
2016-10-14T03:56:11.173Z,60.43
2016-10-14T03:57:11.159Z,60.63
2016-10-14T03:58:11.146Z,60.63
2016-10-14T03:59:10.803Z,60.72
2016-10-14T04:00:11.104Z,60.72
2016-10-14T04:01:11.089Z,60.63
2016-10-14T04:02:11.069Z,59.86
2016-10-14T04:03:10.734Z,59.86
2016-10-14T04:04:11.038Z,60.43
2016-10-14T04:05:11.024Z,60.14
2016-10-14T04:06:11.002Z,60.34
2016-10-14T04:07:10.991Z,59.86
2016-10-14T04:08:10.970Z,59.76
2016-10-14T04:09:10.958Z,59.66
2016-10-14T04:10:10.941Z,59.47
2016-10-14T04:11:10.918Z,59.09
2016-10-14T04:12:10.907Z,58.64
2016-10-14T04:13:10.882Z,58.15
2016-10-14T04:14:10.866Z,58.64
2016-10-14T04:15:10.849Z,58.54
2016-10-14T04:16:10.839Z,58.06
2016-10-14T04:17:10.817Z,58.06
2016-10-14T04:18:10.799Z,57.87
2016-10-14T04:19:10.782Z,57.97
2016-10-14T04:20:10.453Z,57.77
2016-10-14T04:21:10.750Z,57.68
2016-10-14T04:22:10.733Z,58.45
2016-10-14T04:23:10.717Z,57.97
2016-10-14T04:24:10.700Z,57.87
2016-10-14T04:25:10.682Z,58.15
2016-10-14T04:26:10.667Z,57.87
2016-10-14T04:27:10.650Z,58.06
2016-10-14T04:28:10.637Z,58.06
2016-10-14T04:29:10.612Z,57.87
2016-10-14T04:30:10.598Z,58.06
2016-10-14T04:31:10.613Z,57.97
2016-10-14T04:32:10.564Z,57.58
2016-10-14T04:33:10.551Z,57.68
2016-10-14T04:34:10.531Z,57.68
2016-10-14T04:35:10.514Z,57.48
2016-10-14T04:36:10.497Z,57.58
2016-10-14T04:37:10.481Z,57.48
2016-10-14T04:38:10.458Z,57.77
2016-10-14T04:39:10.453Z,57.58
2016-10-14T04:40:10.430Z,57.87
2016-10-14T04:41:10.411Z,57.97
2016-10-14T04:42:10.397Z,57.58
2016-10-14T04:43:10.378Z,57.68
2016-10-14T04:44:10.364Z,58.15
2016-10-14T04:45:10.348Z,57.87
2016-10-14T04:46:10.325Z,57.77
2016-10-14T04:47:10.309Z,57.77
2016-10-14T04:48:09.977Z,57.77
2016-10-14T04:49:09.964Z,57.77
2016-10-14T04:50:10.255Z,57.77
2016-10-14T04:51:09.927Z,58.06
2016-10-14T04:52:10.229Z,58.15
2016-10-14T04:53:10.210Z,57.29
2016-10-14T04:54:10.193Z,57.39
2016-10-14T04:55:10.181Z,57.39
2016-10-14T04:56:09.844Z,57.2
2016-10-14T04:57:10.143Z,57.48
2016-10-14T04:58:10.128Z,57.39
2016-10-14T04:59:09.798Z,57.39
2016-10-14T05:00:10.092Z,57.39
2016-10-14T05:01:10.077Z,57.48
2016-10-14T05:02:10.059Z,57.58
2016-10-14T05:03:10.044Z,57.39
2016-10-14T05:04:10.027Z,57.58
2016-10-14T05:05:10.010Z,57.48
2016-10-14T05:06:09.988Z,57.29
2016-10-14T05:07:09.979Z,57.29
2016-10-14T05:08:09.958Z,57.39
2016-10-14T05:09:09.947Z,57.48
2016-10-14T05:10:09.928Z,57.39
2016-10-14T05:11:09.909Z,57.58
2016-10-14T05:12:09.894Z,57.77
2016-10-14T05:13:09.882Z,57.29
2016-10-14T05:14:09.863Z,57.39
2016-10-14T05:15:09.841Z,57.29
2016-10-14T05:16:09.829Z,57.29
2016-10-14T05:17:09.806Z,57.39
2016-10-14T05:18:09.797Z,57.29
2016-10-14T05:19:09.461Z,57.39
2016-10-14T05:20:09.761Z,57.2
2016-10-14T05:21:09.746Z,57.2
2016-10-14T05:22:09.730Z,57.58
2016-10-14T05:23:09.708Z,57.2
2016-10-14T05:24:09.702Z,57.29
2016-10-14T05:25:09.675Z,57.2
2016-10-14T05:26:09.657Z,57.48
2016-10-14T05:27:09.645Z,56.91
2016-10-14T05:28:09.631Z,57.1
2016-10-14T05:29:09.606Z,57.2
2016-10-14T05:30:09.597Z,57.2
2016-10-14T05:31:09.578Z,57.2
2016-10-14T05:32:09.562Z,57
2016-10-14T05:33:09.541Z,57.2
2016-10-14T05:34:09.522Z,57.1
2016-10-14T05:35:09.509Z,57.2
2016-10-14T05:36:09.498Z,57.1
2016-10-14T05:37:09.163Z,57.2
2016-10-14T05:38:09.458Z,56.91
2016-10-14T05:39:09.442Z,57
2016-10-14T05:40:09.427Z,56.91
2016-10-14T05:41:09.412Z,57
2016-10-14T05:42:09.391Z,57.2
2016-10-14T05:43:09.384Z,56.74
2016-10-14T05:44:09.355Z,57.03
2016-10-14T05:45:09.338Z,56.81
2016-10-14T05:46:09.325Z,57.03
2016-10-14T05:47:09.306Z,56.62
2016-10-14T05:48:09.297Z,56.91
2016-10-14T05:49:09.275Z,56.71
2016-10-14T05:50:09.262Z,56.91
2016-10-14T05:51:09.248Z,56.62
2016-10-14T05:52:08.914Z,56.62
2016-10-14T05:53:09.209Z,56.91
2016-10-14T05:54:09.202Z,56.91
2016-10-14T05:55:09.177Z,56.81
2016-10-14T05:56:09.160Z,56.81
2016-10-14T05:57:09.145Z,56.81
2016-10-14T05:58:09.130Z,56.81
2016-10-14T05:59:09.114Z,56.91
2016-10-14T06:00:09.093Z,56.62
2016-10-14T06:01:09.080Z,56.71
2016-10-14T06:02:09.061Z,56.91
2016-10-14T06:03:09.050Z,56.62
2016-10-14T06:04:09.027Z,56.81
2016-10-14T06:05:09.012Z,56.71
2016-10-14T06:06:08.998Z,56.74
2016-10-14T06:07:08.983Z,56.93
2016-10-14T06:08:08.960Z,56.55
2016-10-14T06:09:08.947Z,56.26
2016-10-14T06:10:08.934Z,56.74
2016-10-14T06:11:08.927Z,56.65
2016-10-14T06:12:08.901Z,56.36
2016-10-14T06:13:08.882Z,56.45
2016-10-14T06:14:08.862Z,56.16
2016-10-14T06:15:08.845Z,56.36
2016-10-14T06:16:08.833Z,56.16
2016-10-14T06:17:08.816Z,56.36
2016-10-14T06:18:08.797Z,56.16
2016-10-14T06:19:08.782Z,56.45
2016-10-14T06:20:08.761Z,56.16
2016-10-14T06:21:08.758Z,56.55
2016-10-14T06:22:08.734Z,56.33
2016-10-14T06:23:08.731Z,56.45
2016-10-14T06:24:08.706Z,56.65
2016-10-14T06:25:08.683Z,56.65
2016-10-14T06:26:08.667Z,56.45
2016-10-14T06:27:08.647Z,56.36
2016-10-14T06:28:08.632Z,56.43
2016-10-14T06:29:08.617Z,56.36
2016-10-14T06:30:08.600Z,56.52
2016-10-14T06:31:08.581Z,56.52
2016-10-14T06:32:08.564Z,56.45
2016-10-14T06:33:08.552Z,56.45
2016-10-14T06:34:08.531Z,56.16
2016-10-14T06:35:08.520Z,56.55
2016-10-14T06:36:08.501Z,56.36
2016-10-14T06:37:08.491Z,56.45
2016-10-14T06:38:08.467Z,56.62
2016-10-14T06:39:08.454Z,56.55
2016-10-14T06:40:08.435Z,56.36
2016-10-14T06:41:08.417Z,56.36
2016-10-14T06:42:08.420Z,56.74
2016-10-14T06:43:08.384Z,56.45
2016-10-14T06:44:08.371Z,56.84
2016-10-14T06:45:08.353Z,56.84
2016-10-14T06:46:08.337Z,56.93
2016-10-14T06:47:08.321Z,56.55
2016-10-14T06:48:08.301Z,56.74
2016-10-14T06:49:08.287Z,56.36
2016-10-14T06:50:08.275Z,56.45
2016-10-14T06:51:08.255Z,56.93
2016-10-14T06:52:08.232Z,56.36
2016-10-14T06:53:08.219Z,56.93
2016-10-14T06:54:08.204Z,56.84
2016-10-14T06:55:08.196Z,56.93
2016-10-14T06:56:08.168Z,56.45
2016-10-14T06:57:08.153Z,56.84
2016-10-14T06:58:08.137Z,56.84
2016-10-14T06:59:08.136Z,56.74
2016-10-14T07:00:08.131Z,56.26
2016-10-14T07:01:08.122Z,56.65
2016-10-14T07:02:08.075Z,56.55
2016-10-14T07:03:08.053Z,56.93
2016-10-14T07:04:08.037Z,56.45
2016-10-14T07:05:08.025Z,56.55
2016-10-14T07:06:08.005Z,56.26
2016-10-14T07:07:07.987Z,56.55
2016-10-14T07:08:07.974Z,56.36
2016-10-14T07:09:07.957Z,56.55
2016-10-14T07:10:07.938Z,56.26
2016-10-14T07:11:07.926Z,56.36
2016-10-14T07:12:07.908Z,56.55
2016-10-14T07:13:07.910Z,56.16
2016-10-14T07:14:07.879Z,56.36
2016-10-14T07:15:07.856Z,56.36
2016-10-14T07:16:07.843Z,56.36
2016-10-14T07:17:07.824Z,56.26
2016-10-14T07:18:07.808Z,56.26
2016-10-14T07:19:07.789Z,56.36
2016-10-14T07:20:07.780Z,56.16
2016-10-14T07:21:07.757Z,56.36
2016-10-14T07:22:07.747Z,56.26
2016-10-14T07:23:07.727Z,56.45
2016-10-14T07:24:07.709Z,56.16
2016-10-14T07:25:07.694Z,56.36
2016-10-14T07:26:07.687Z,56.36
2016-10-14T07:27:07.654Z,56.26
2016-10-14T07:28:07.327Z,56.26
2016-10-14T07:29:07.627Z,56.36
2016-10-14T07:30:07.618Z,56.16
2016-10-14T07:31:07.588Z,56.36
2016-10-14T07:32:07.576Z,56.26
2016-10-14T07:33:07.560Z,56.26
2016-10-14T07:34:07.545Z,56.26
2016-10-14T07:35:07.530Z,56.36
2016-10-14T07:36:07.507Z,56.36
2016-10-14T07:37:07.498Z,56.26
2016-10-14T07:38:07.481Z,56.26
2016-10-14T07:39:07.148Z,56.45
2016-10-14T07:40:07.448Z,56.36
2016-10-14T07:41:07.427Z,56.45
2016-10-14T07:42:07.419Z,56.36
2016-10-14T07:43:07.400Z,56.36
2016-10-14T07:44:07.375Z,56.36
2016-10-14T07:45:07.358Z,56.26
2016-10-14T07:46:07.347Z,56.45
2016-10-14T07:47:07.326Z,56.45
2016-10-14T07:48:07.312Z,56.07
2016-10-14T07:49:07.303Z,56.16
2016-10-14T07:50:07.280Z,56.36
2016-10-14T07:51:07.269Z,56.26
2016-10-14T07:52:07.243Z,56.36
2016-10-14T07:53:07.244Z,56.36
2016-10-14T07:54:07.209Z,56.45
2016-10-14T07:55:07.198Z,55.98
2016-10-14T07:56:07.182Z,56.45
2016-10-14T07:57:07.158Z,55.78
2016-10-14T07:58:07.147Z,55.78
2016-10-14T07:59:07.129Z,55.78
2016-10-14T08:00:07.110Z,55.78
2016-10-14T08:01:07.099Z,55.98
2016-10-14T08:02:07.076Z,55.59
2016-10-14T08:03:07.064Z,56.26
2016-10-14T08:04:07.043Z,55.88
2016-10-14T08:05:07.028Z,56.45
2016-10-14T08:06:07.017Z,56.55
2016-10-14T08:07:07.003Z,55.78
2016-10-14T08:08:06.980Z,56.26
2016-10-14T08:09:06.972Z,56.16
2016-10-14T08:10:06.953Z,55.88
2016-10-14T08:11:06.939Z,55.98
2016-10-14T08:12:06.921Z,55.78
2016-10-14T08:13:06.904Z,55.78
2016-10-14T08:14:06.895Z,55.88
2016-10-14T08:15:06.882Z,56.26
2016-10-14T08:16:06.852Z,56.07
2016-10-14T08:17:06.831Z,55.88
2016-10-14T08:18:06.819Z,56.45
2016-10-14T08:19:06.801Z,56.16
2016-10-14T08:20:06.786Z,56.26
2016-10-14T08:21:06.770Z,56.16
2016-10-14T08:22:06.757Z,56.16
2016-10-14T08:23:06.735Z,56.45
2016-10-14T08:24:06.715Z,56.36
2016-10-14T08:25:06.706Z,56.07
2016-10-14T08:26:06.687Z,56.26
2016-10-14T08:27:06.669Z,56.36
2016-10-14T08:28:06.656Z,56.07
2016-10-14T08:29:06.639Z,56.07
2016-10-14T08:30:06.634Z,55.98
2016-10-14T08:31:06.608Z,55.78
2016-10-14T08:32:06.589Z,56.16
2016-10-14T08:33:06.572Z,55.78
2016-10-14T08:34:06.553Z,56.26
2016-10-14T08:35:06.540Z,55.78
2016-10-14T08:36:06.521Z,55.4
2016-10-14T08:37:06.506Z,55.49
2016-10-14T08:38:06.492Z,56.07
2016-10-14T08:39:06.475Z,56.55
2016-10-14T08:40:06.460Z,55.78
2016-10-14T08:41:06.437Z,55.88
2016-10-14T08:42:06.419Z,55.59
2016-10-14T08:43:06.409Z,56.07
2016-10-14T08:44:06.389Z,55.68
2016-10-14T08:45:06.369Z,55.88
2016-10-14T08:46:06.357Z,55.59
2016-10-14T08:47:06.340Z,55.59
2016-10-14T08:48:06.320Z,55.88
2016-10-14T08:49:06.313Z,55.78
2016-10-14T08:50:06.294Z,55.78
2016-10-14T08:51:06.279Z,55.68
2016-10-14T08:52:06.257Z,55.78
2016-10-14T08:53:06.246Z,55.88
2016-10-14T08:54:06.229Z,50.01
2016-10-14T08:55:06.208Z,51.88
2016-10-14T08:56:06.195Z,50.96
2016-10-14T08:57:05.855Z,51.64
2016-10-14T08:58:06.163Z,55.26
2016-10-14T08:59:06.138Z,55.57
2016-10-14T09:00:06.126Z,54.35
2016-10-14T09:01:05.788Z,53.49
2016-10-14T09:02:06.095Z,53.42
2016-10-14T09:03:06.077Z,54.5
2016-10-14T09:04:06.057Z,54.6
2016-10-14T09:05:06.062Z,54.79
2016-10-14T09:06:06.024Z,54.6
2016-10-14T09:07:06.016Z,54.89
2016-10-14T09:08:05.990Z,54.79
2016-10-14T09:09:05.981Z,54.63
2016-10-14T09:10:05.956Z,54.63
2016-10-14T09:11:05.942Z,54.82
2016-10-14T09:12:05.928Z,54.82
2016-10-14T09:13:05.906Z,54.91
2016-10-14T09:14:05.901Z,54.43
2016-10-14T09:15:05.886Z,54.82
2016-10-14T09:16:05.863Z,54.63
2016-10-14T09:17:05.845Z,54.91
2016-10-14T09:18:05.826Z,55.01
2016-10-14T09:19:05.817Z,54.82
2016-10-14T09:20:05.791Z,54.91
2016-10-14T09:21:05.773Z,54.91
2016-10-14T09:22:05.758Z,54.91
2016-10-14T09:23:05.746Z,54.72
2016-10-14T09:24:05.733Z,54.91
2016-10-14T09:25:05.712Z,54.91
2016-10-14T09:26:05.698Z,54.82
2016-10-14T09:27:05.691Z,54.82
2016-10-14T09:28:05.676Z,54.82
2016-10-14T09:29:05.652Z,55.3
2016-10-14T09:30:05.621Z,55.3
2016-10-14T09:31:05.613Z,54.91
2016-10-14T09:32:05.594Z,55.11
2016-10-14T09:33:05.585Z,55.2
2016-10-14T09:34:05.565Z,55.49
2016-10-14T09:35:05.550Z,55.49
2016-10-14T09:36:05.529Z,55.68
2016-10-14T09:37:05.511Z,55.3
2016-10-14T09:38:05.492Z,55.49
2016-10-14T09:39:05.476Z,55.78
2016-10-14T09:40:05.459Z,55.11
2016-10-14T09:41:05.446Z,54.82
2016-10-14T09:42:05.428Z,55.4
2016-10-14T09:43:05.407Z,55.3
2016-10-14T09:44:05.392Z,55.59
2016-10-14T09:45:05.382Z,55.2
2016-10-14T09:46:05.362Z,55.2
2016-10-14T09:47:05.340Z,55.4
2016-10-14T09:48:05.325Z,55.3
2016-10-14T09:49:05.318Z,54.91
2016-10-14T09:50:05.291Z,55.4
2016-10-14T09:51:05.281Z,55.49
2016-10-14T09:52:05.268Z,55.11
2016-10-14T09:53:05.245Z,55.3
2016-10-14T09:54:05.230Z,55.2
2016-10-14T09:55:05.210Z,54.91
2016-10-14T09:56:05.199Z,55.2
2016-10-14T09:57:05.181Z,55.68
2016-10-14T09:58:05.162Z,55.3
2016-10-14T09:59:05.148Z,54.91
2016-10-14T10:00:05.125Z,55.59
2016-10-14T10:01:05.114Z,55.68
2016-10-14T10:02:05.095Z,55.4
2016-10-14T10:03:05.093Z,55.3
2016-10-14T10:04:05.069Z,55.2
2016-10-14T10:05:04.733Z,55.2
2016-10-14T10:06:05.026Z,54.91
2016-10-14T10:07:05.013Z,55.4
2016-10-14T10:08:05.001Z,55.3
2016-10-14T10:09:04.980Z,55.2
2016-10-14T10:10:04.965Z,55.2
2016-10-14T10:11:04.950Z,55.01
2016-10-14T10:12:04.930Z,55.49
2016-10-14T10:13:04.917Z,55.49
2016-10-14T10:14:04.899Z,54.91
2016-10-14T10:15:04.885Z,55.4
2016-10-14T10:16:04.863Z,55.11
2016-10-14T10:17:04.848Z,55.3
2016-10-14T10:18:04.835Z,55.3
2016-10-14T10:19:04.819Z,55.78
2016-10-14T10:20:04.804Z,55.01
2016-10-14T10:21:04.781Z,55.2
2016-10-14T10:22:04.766Z,55.2
2016-10-14T10:23:04.750Z,55.01
2016-10-14T10:24:04.732Z,55.4
2016-10-14T10:25:04.724Z,55.59
2016-10-14T10:26:04.699Z,55.59
2016-10-14T10:27:04.685Z,55.59
2016-10-14T10:28:04.666Z,55.78
2016-10-14T10:29:04.645Z,55.68
2016-10-14T10:30:04.633Z,55.2
2016-10-14T10:31:04.620Z,55.4
2016-10-14T10:32:04.601Z,55.59
2016-10-14T10:33:04.588Z,55.2
2016-10-14T10:34:04.572Z,55.2
2016-10-14T10:35:04.552Z,55.01
2016-10-14T10:36:04.220Z,55.01
2016-10-14T10:37:04.535Z,55.68
2016-10-14T10:38:04.502Z,54.82
2016-10-14T10:39:04.488Z,55.68
2016-10-14T10:40:04.467Z,55.2
2016-10-14T10:41:04.454Z,54.91
2016-10-14T10:42:04.431Z,54.91
2016-10-14T10:43:04.417Z,55.4
2016-10-14T10:44:04.421Z,55.78
2016-10-14T10:45:04.381Z,55.11
2016-10-14T10:46:04.386Z,54.91
2016-10-14T10:47:04.353Z,55.68
2016-10-14T10:48:04.339Z,55.11
2016-10-14T10:49:04.324Z,55.11
2016-10-14T10:50:04.307Z,55.2
2016-10-14T10:51:04.292Z,55.11
2016-10-14T10:52:04.269Z,54.91
2016-10-14T10:53:04.251Z,55.11
2016-10-14T10:54:04.240Z,55.49
2016-10-14T10:55:04.223Z,55.4
2016-10-14T10:56:04.204Z,55.49
2016-10-14T10:57:04.186Z,55.49
2016-10-14T10:58:04.173Z,55.68
2016-10-14T10:59:04.153Z,55.01
2016-10-14T11:00:03.827Z,55.4
2016-10-14T11:01:04.129Z,55.2
2016-10-14T11:02:04.104Z,55.2
2016-10-14T11:03:04.089Z,55.3
2016-10-14T11:04:04.079Z,55.2
2016-10-14T11:05:04.058Z,55.78
2016-10-14T11:06:04.035Z,55.2
2016-10-14T11:07:04.024Z,55.11
2016-10-14T11:08:04.009Z,55.4
2016-10-14T11:09:03.994Z,55.3
2016-10-14T11:10:03.978Z,55.78
2016-10-14T11:11:03.959Z,55.59
2016-10-14T11:12:03.944Z,55.98
2016-10-14T11:13:03.928Z,55.49
2016-10-14T11:14:03.593Z,56.07
2016-10-14T11:15:03.892Z,55.68
2016-10-14T11:16:03.874Z,55.2
2016-10-14T11:17:03.857Z,54.63
2016-10-14T11:18:03.848Z,53.57
2016-10-14T11:19:03.829Z,53.57
2016-10-14T11:20:03.812Z,53.57
2016-10-14T11:21:03.798Z,52.89
2016-10-14T11:22:03.779Z,53.35
2016-10-14T11:23:03.762Z,54.53
2016-10-14T11:24:03.750Z,53.86
2016-10-14T11:25:03.734Z,54.24
2016-10-14T11:26:03.711Z,54.43
2016-10-14T11:27:03.695Z,55.01
2016-10-14T11:28:03.682Z,54.43
2016-10-14T11:29:03.660Z,54.53
2016-10-14T11:30:03.645Z,54.24
2016-10-14T11:31:03.626Z,54.43
2016-10-14T11:32:03.295Z,54.24
2016-10-14T11:33:03.602Z,54.05
2016-10-14T11:34:03.584Z,54.24
2016-10-14T11:35:03.565Z,54.24
2016-10-14T11:36:03.236Z,54.43
2016-10-14T11:37:03.219Z,54.53
2016-10-14T11:38:03.514Z,54.34
2016-10-14T11:39:03.496Z,54.43
2016-10-14T11:40:03.481Z,54.43
2016-10-14T11:41:03.464Z,54.43
2016-10-14T11:42:03.444Z,54.36
2016-10-14T11:43:03.447Z,53.78
2016-10-14T11:44:03.420Z,53.88
2016-10-14T11:45:03.397Z,54.43
2016-10-14T11:46:03.391Z,54.43
2016-10-14T11:47:03.365Z,54.24
2016-10-14T11:48:03.351Z,54.53
2016-10-14T11:49:03.330Z,54.43
2016-10-14T11:50:03.317Z,54.34
2016-10-14T11:51:03.298Z,54.53
2016-10-14T11:52:03.276Z,54.63
2016-10-14T11:53:03.285Z,54.53
2016-10-14T11:54:03.251Z,54.63
2016-10-14T11:55:03.231Z,54.72
2016-10-14T11:56:03.218Z,54.63
2016-10-14T11:57:03.202Z,55.01
2016-10-14T11:58:03.179Z,54.63
2016-10-14T11:59:03.170Z,54.72
2016-10-14T12:00:03.149Z,54.53
2016-10-14T12:01:03.134Z,54.72
2016-10-14T12:02:03.118Z,54.53
2016-10-14T12:03:03.101Z,54.72
2016-10-14T12:04:03.091Z,54.63
2016-10-14T12:05:02.754Z,54.53
2016-10-14T12:06:03.051Z,54.91
2016-10-14T12:07:03.041Z,54.34
2016-10-14T12:08:03.020Z,55.01
2016-10-14T12:09:02.995Z,54.82
2016-10-14T12:10:02.986Z,54.43
2016-10-14T12:11:02.972Z,54.82
2016-10-14T12:12:02.949Z,54.43
2016-10-14T12:13:02.938Z,54.43
2016-10-14T12:14:02.925Z,54.82
2016-10-14T12:15:02.908Z,54.63
2016-10-14T12:16:02.887Z,54.91
2016-10-14T12:17:02.873Z,54.72
2016-10-14T12:18:02.850Z,54.72
2016-10-14T12:19:02.838Z,54.82
2016-10-14T12:20:02.504Z,54.63
2016-10-14T12:21:02.808Z,54.72
2016-10-14T12:22:02.782Z,54.82
2016-10-14T12:23:02.775Z,54.63
2016-10-14T12:24:02.751Z,54.34
2016-10-14T12:25:02.738Z,54.63
2016-10-14T12:26:02.722Z,54.63
2016-10-14T12:27:02.702Z,54.43
2016-10-14T12:28:02.372Z,54.63
2016-10-14T12:29:02.672Z,54.43
2016-10-14T12:30:02.335Z,54.34
2016-10-14T12:31:02.636Z,54.53
2016-10-14T12:32:02.961Z,54.43
2016-10-14T12:33:02.292Z,54.53
2016-10-14T12:34:02.605Z,54.43
2016-10-14T12:35:02.265Z,54.05
2016-10-14T12:36:02.552Z,54.34
2016-10-14T12:37:02.221Z,54.53
2016-10-14T12:38:02.522Z,54.34
2016-10-14T12:39:02.504Z,54.53
2016-10-14T12:40:02.489Z,54.63
2016-10-14T12:41:02.476Z,54.53
2016-10-14T12:42:02.459Z,54.63
2016-10-14T12:43:02.442Z,54.82
2016-10-14T12:44:02.428Z,54.82
2016-10-14T12:45:02.411Z,54.43
2016-10-14T12:46:02.388Z,54.63
2016-10-14T12:47:02.384Z,54.63
2016-10-14T12:48:02.359Z,54.63
2016-10-14T12:49:02.342Z,54.72
2016-10-14T12:50:02.328Z,54.82
2016-10-14T12:51:02.309Z,54.82
2016-10-14T12:52:02.293Z,54.82
2016-10-14T12:53:02.284Z,54.91
2016-10-14T12:54:02.260Z,54.43
2016-10-14T12:55:02.249Z,54.82